Time;durP1;ratioP1;P1;durP2;ratioP2;P2;SDS_P1;SDS_P2;PMS_P1;PMS_P2;Temp;Humidity;BMP_temperature;BMP_pressure;BME280_temperature;BME280_humidity;BME280_pressure;Samples;Min_cycle;Max_cycle;Signal;HPM_P1;HPM_P2
2023/04/22 00:02:46;;;;;;;15.43;7.90;;;6.20;99.90;;;;;;5090568;28;20025;-75
2023/04/22 00:05:14;;;;;;;16.73;8.68;;;6.20;99.90;;;;;;5090609;28;20099;-74
2023/04/22 00:07:41;;;;;;;17.85;7.35;;;6.20;99.90;;;;;;5091424;28;20024;-75
2023/04/22 00:10:11;;;;;;;17.35;7.88;;;6.10;99.90;;;;;;5090978;28;20028;-75
2023/04/22 00:12:39;;;;;;;16.65;7.75;;;6.10;99.90;;;;;;5090577;28;20036;-75
2023/04/22 00:18:30;;;;;;;15.73;7.47;;;6.10;99.90;;;;;;5089028;28;20063;-75
2023/04/22 00:20:55;;;;;;;12.98;6.70;;;6.00;99.90;;;;;;5089187;28;20088;-75
2023/04/22 00:23:21;;;;;;;16.35;7.82;;;6.00;99.90;;;;;;5070852;28;20021;-75
2023/04/22 00:25:47;;;;;;;20.45;8.45;;;6.00;99.90;;;;;;5089645;28;20512;-74
2023/04/22 00:28:13;;;;;;;16.42;7.95;;;5.90;99.90;;;;;;5088298;28;20460;-75
2023/04/22 00:31:16;;;;;;;13.85;7.47;;;5.90;99.90;;;;;;5087853;28;20076;-75
2023/04/22 00:33:42;;;;;;;15.13;7.57;;;5.90;99.90;;;;;;5069811;28;20040;-75
2023/04/22 00:36:07;;;;;;;14.30;7.05;;;5.80;99.90;;;;;;5087686;28;20028;-75
2023/04/22 00:38:33;;;;;;;15.25;7.95;;;5.80;99.90;;;;;;5086963;28;20044;-75
2023/04/22 00:40:59;;;;;;;14.65;7.43;;;5.80;99.90;;;;;;5069952;28;20035;-75
2023/04/22 00:43:25;;;;;;;20.13;7.30;;;5.80;99.90;;;;;;5070662;28;20028;-74
2023/04/22 00:45:50;;;;;;;18.95;7.85;;;5.80;99.90;;;;;;5088724;28;20024;-74
2023/04/22 00:48:16;;;;;;;15.35;7.93;;;5.80;99.90;;;;;;5071507;28;20028;-75
2023/04/22 00:50:41;;;;;;;19.73;7.55;;;5.70;99.90;;;;;;5070172;28;20028;-74
2023/04/22 00:53:07;;;;;;;13.50;8.15;;;5.70;99.90;;;;;;5104602;28;20033;-75
2023/04/22 00:55:40;;;;;;;14.52;7.35;;;5.70;99.90;;;;;;5088001;28;20029;-75
2023/04/22 01:01:35;;;;;;;15.32;7.40;;;5.60;99.90;;;;;;5087716;28;20419;-75
2023/04/22 01:04:01;;;;;;;14.43;8.07;;;5.60;99.90;;;;;;5088467;28;20037;-75
2023/04/22 01:09:57;;;;;;;13.60;7.18;;;5.50;99.90;;;;;;5087886;28;20376;-74
2023/04/22 01:12:51;;;;;;;12.45;6.60;;;5.50;99.90;;;;;;5087466;28;20025;-75
2023/04/22 01:15:17;;;;;;;12.75;8.10;;;5.40;99.90;;;;;;5119210;28;20025;-74
2023/04/22 01:17:44;;;;;;;13.75;7.80;;;5.40;99.90;;;;;;5119198;28;20038;-74
2023/04/22 01:20:30;;;;;;;19.63;7.90;;;5.40;99.90;;;;;;5084803;28;20035;-75
2023/04/22 01:22:57;;;;;;;18.85;9.27;;;5.40;99.90;;;;;;5085997;28;20539;-75
2023/04/22 01:25:24;;;;;;;16.65;6.82;;;5.30;99.90;;;;;;5085754;28;20419;-75
2023/04/22 01:31:12;;;;;;;13.80;7.10;;;5.30;99.90;;;;;;5085835;28;20095;-75
2023/04/22 01:37:00;;;;;;;18.10;7.03;;;5.20;99.90;;;;;;5082529;28;20097;-75
2023/04/22 01:39:26;;;;;;;20.30;7.72;;;5.20;99.90;;;;;;5085711;28;20036;-74
2023/04/22 01:41:52;;;;;;;19.83;7.63;;;5.20;99.90;;;;;;5087032;28;20035;-75
2023/04/22 01:44:18;;;;;;;15.63;7.20;;;5.20;99.90;;;;;;5087394;28;20100;-76
2023/04/22 01:47:07;;;;;;;17.67;7.40;;;5.10;99.90;;;;;;5084593;28;20032;-75
2023/04/22 01:49:33;;;;;;;13.00;7.70;;;5.10;99.90;;;;;;5117311;28;20059;-74
2023/04/22 01:51:58;;;;;;;14.65;7.05;;;5.00;99.90;;;;;;5084887;28;20032;-74
2023/04/22 01:54:25;;;;;;;19.98;7.13;;;5.10;99.90;;;;;;5085256;28;20411;-75
2023/04/22 01:56:52;;;;;;;15.07;7.47;;;5.00;99.90;;;;;;5085705;28;20053;-75
2023/04/22 01:59:19;;;;;;;14.55;7.35;;;5.00;99.90;;;;;;5086924;28;20029;-76
2023/04/22 02:01:45;;;;;;;16.08;7.65;;;5.00;99.90;;;;;;5087378;28;20139;-75
2023/04/22 02:04:10;;;;;;;15.38;7.05;;;5.00;99.90;;;;;;5087570;28;20032;-74
2023/04/22 02:06:36;;;;;;;19.75;6.97;;;5.00;99.90;;;;;;5120749;28;20021;-75
2023/04/22 02:09:03;;;;;;;15.13;8.30;;;5.00;99.90;;;;;;5118475;28;20020;-75
2023/04/22 02:11:35;;;;;;;11.23;7.07;;;4.90;99.90;;;;;;5086593;28;20020;-75
2023/04/22 02:14:00;;;;;;;17.70;7.03;;;4.90;99.90;;;;;;5085566;28;20047;-75
2023/04/22 02:16:26;;;;;;;19.80;7.50;;;4.90;99.90;;;;;;5085111;28;20025;-75
2023/04/22 02:18:52;;;;;;;13.48;7.25;;;4.90;99.90;;;;;;5084101;28;20032;-75
2023/04/22 02:21:17;;;;;;;14.48;7.18;;;4.90;99.90;;;;;;5084809;28;20020;-75
2023/04/22 02:23:43;;;;;;;18.13;6.90;;;4.90;99.90;;;;;;5084741;28;20024;-74
2023/04/22 02:26:09;;;;;;;13.30;7.43;;;4.80;99.90;;;;;;5085004;28;20036;-75
2023/04/22 02:28:42;;;;;;;11.70;7.07;;;4.80;99.90;;;;;;5116405;28;20028;-74
2023/04/22 02:31:41;;;;;;;17.13;7.32;;;4.70;99.90;;;;;;5082009;28;20024;-74
2023/04/22 02:34:07;;;;;;;12.68;7.15;;;4.70;99.90;;;;;;5080380;28;20130;-75
2023/04/22 02:36:33;;;;;;;15.82;7.35;;;4.70;99.90;;;;;;5114614;28;20461;-75
2023/04/22 02:39:04;;;;;;;13.15;7.43;;;4.60;99.90;;;;;;5083528;28;20033;-75
2023/04/22 02:41:29;;;;;;;17.67;7.88;;;4.60;99.90;;;;;;5083437;28;20017;-75
2023/04/22 02:43:55;;;;;;;12.20;7.30;;;4.90;99.90;;;;;;5082629;28;20031;-75
2023/04/22 02:46:21;;;;;;;17.38;7.22;;;4.60;99.90;;;;;;5080640;28;20043;-75
2023/04/22 02:48:48;;;;;;;19.00;7.78;;;4.60;99.90;;;;;;5082057;28;20021;-75
2023/04/22 02:51:14;;;;;;;18.25;7.03;;;4.50;99.90;;;;;;5079882;28;20028;-75
2023/04/22 02:53:40;;;;;;;17.13;7.95;;;4.50;99.90;;;;;;5081064;28;20024;-75
2023/04/22 02:56:07;;;;;;;16.25;7.00;;;4.70;99.90;;;;;;5080373;28;20104;-75
2023/04/22 02:58:33;;;;;;;15.00;7.15;;;4.50;99.90;;;;;;5079473;28;20025;-75
2023/04/22 03:00:58;;;;;;;22.13;7.55;;;4.60;99.90;;;;;;5111925;28;20045;-75
2023/04/22 03:03:25;;;;;;;15.10;6.90;;;4.40;99.90;;;;;;5083430;28;20353;-75
2023/04/22 03:05:51;;;;;;;15.23;7.53;;;4.40;99.90;;;;;;5083175;28;20063;-75
2023/04/22 03:08:16;;;;;;;13.10;7.55;;;4.40;99.90;;;;;;5082016;28;20025;-75
2023/04/22 03:10:42;;;;;;;13.20;7.43;;;4.40;99.90;;;;;;5082629;28;20029;-75
2023/04/22 03:13:07;;;;;;;13.20;7.75;;;4.40;99.90;;;;;;5084584;28;20035;-75
2023/04/22 03:15:33;;;;;;;11.93;7.53;;;4.40;99.90;;;;;;5083457;28;20035;-75
2023/04/22 03:17:59;;;;;;;21.98;7.55;;;4.40;99.90;;;;;;5084584;28;20175;-75
2023/04/22 03:20:29;;;;;;;16.23;8.13;;;4.40;99.90;;;;;;5117838;28;20059;-75
2023/04/22 03:22:55;;;;;;;14.40;7.05;;;4.30;99.90;;;;;;5083659;28;20032;-75
2023/04/22 03:25:20;;;;;;;11.23;6.70;;;4.30;99.90;;;;;;5080316;28;20035;-75
2023/04/22 03:27:46;;;;;;;12.70;6.80;;;4.30;99.90;;;;;;5079372;28;20075;-75
2023/04/22 03:30:12;;;;;;;14.95;6.82;;;4.20;99.90;;;;;;5080316;28;20511;-75
2023/04/22 03:32:37;;;;;;;12.20;7.05;;;4.20;99.90;;;;;;5081968;28;20444;-75
2023/04/22 03:35:03;;;;;;;13.25;6.65;;;4.20;99.90;;;;;;5081430;28;20445;-76
2023/04/22 03:37:29;;;;;;;13.52;7.18;;;4.20;99.90;;;;;;5113905;28;20127;-75
2023/04/22 03:39:55;;;;;;;14.70;6.90;;;4.10;99.90;;;;;;5080921;28;20545;-75
2023/04/22 03:42:20;;;;;;;16.58;7.97;;;4.10;99.90;;;;;;5080761;28;20028;-75
2023/04/22 03:44:46;;;;;;;16.02;8.02;;;4.10;99.90;;;;;;5113183;28;20079;-75
2023/04/22 03:47:12;;;;;;;13.27;6.72;;;4.10;99.90;;;;;;5079670;28;20110;-75
2023/04/22 03:49:37;;;;;;;21.00;6.90;;;4.10;99.90;;;;;;5079891;28;20028;-75
2023/04/22 03:52:03;;;;;;;12.55;6.80;;;4.10;99.90;;;;;;5077747;28;20021;-75
2023/04/22 03:54:29;;;;;;;16.45;7.75;;;4.00;99.90;;;;;;5079071;28;20090;-76
2023/04/22 03:56:54;;;;;;;14.07;6.70;;;4.10;99.90;;;;;;5113639;28;20032;-75
2023/04/22 03:59:20;;;;;;;13.95;7.88;;;4.10;99.90;;;;;;5079156;28;20048;-75
2023/04/22 04:01:46;;;;;;;17.00;7.85;;;4.10;99.90;;;;;;5079465;28;20049;-75
2023/04/22 04:04:12;;;;;;;15.52;7.10;;;4.10;99.90;;;;;;5078371;28;20029;-75
2023/04/22 04:06:38;;;;;;;16.77;7.07;;;4.10;99.90;;;;;;5078273;28;20025;-75
2023/04/22 04:09:04;;;;;;;13.48;6.40;;;4.10;99.90;;;;;;5111414;28;20024;-75
2023/04/22 04:11:30;;;;;;;14.18;6.78;;;4.10;99.90;;;;;;5078012;28;20364;-75
2023/04/22 04:13:55;;;;;;;14.98;8.52;;;4.10;99.90;;;;;;5076768;28;20036;-75
2023/04/22 04:16:21;;;;;;;12.60;7.53;;;4.10;99.90;;;;;;5076520;28;20028;-75
2023/04/22 04:18:50;;;;;;;12.93;7.00;;;4.10;99.90;;;;;;5078103;28;20033;-75
2023/04/22 04:21:16;;;;;;;17.17;8.32;;;5.20;99.90;;;;;;5077770;28;20036;-75
2023/04/22 04:23:41;;;;;;;13.50;7.32;;;4.10;99.90;;;;;;5077701;28;20476;-75
2023/04/22 04:26:07;;;;;;;13.52;8.05;;;4.20;99.90;;;;;;5077858;28;20041;-75
2023/04/22 04:28:34;;;;;;;28.05;7.97;;;4.40;99.90;;;;;;5081032;28;20078;-75
2023/04/22 04:31:03;;;;;;;15.73;7.05;;;4.20;99.90;;;;;;5080357;28;20027;-75
2023/04/22 04:33:31;;;;;;;10.95;7.05;;;4.20;99.90;;;;;;5080429;28;20054;-75
2023/04/22 04:35:57;;;;;;;18.15;7.63;;;4.30;99.90;;;;;;5079399;28;20029;-75
2023/04/22 04:38:23;;;;;;;13.27;8.38;;;4.30;99.90;;;;;;5082639;28;20029;-75
2023/04/22 04:40:50;;;;;;;12.75;7.00;;;4.40;99.90;;;;;;5082443;28;20021;-75
2023/04/22 04:43:16;;;;;;;12.95;6.93;;;4.40;99.90;;;;;;5082093;28;20025;-76
2023/04/22 04:45:45;;;;;;;15.55;6.88;;;4.40;99.90;;;;;;5082507;28;20134;-75
2023/04/22 04:48:15;;;;;;;15.48;8.07;;;4.50;99.90;;;;;;5117364;28;20028;-75
2023/04/22 04:50:42;;;;;;;11.57;6.80;;;4.50;99.90;;;;;;5087091;28;20070;-75
2023/04/22 04:53:08;;;;;;;15.23;6.75;;;4.60;99.90;;;;;;5085819;28;20016;-75
2023/04/22 04:55:34;;;;;;;15.55;7.18;;;4.70;99.90;;;;;;5087119;28;20024;-76
2023/04/22 04:57:59;;;;;;;13.45;6.75;;;4.70;99.90;;;;;;5088052;28;20039;-76
2023/04/22 05:00:25;;;;;;;16.25;7.53;;;4.80;99.90;;;;;;5087553;28;20044;-75
2023/04/22 05:02:51;;;;;;;17.52;7.22;;;4.90;99.90;;;;;;5087345;28;20052;-76
2023/04/22 05:05:16;;;;;;;14.20;7.22;;;4.90;99.90;;;;;;5087439;28;20040;-75
2023/04/22 05:07:42;;;;;;;18.50;7.20;;;5.00;99.90;;;;;;5086933;28;20036;-75
2023/04/22 05:10:09;;;;;;;10.73;5.95;;;5.10;99.90;;;;;;5086926;28;20077;-75
2023/04/22 05:12:34;;;;;;;11.93;6.68;;;5.10;99.90;;;;;;5089814;28;20044;-76
2023/04/22 05:15:00;;;;;;;10.55;7.13;;;5.20;99.90;;;;;;5091228;28;20024;-76
2023/04/22 05:17:26;;;;;;;11.60;6.80;;;5.30;99.90;;;;;;5090591;28;20032;-75
2023/04/22 05:19:52;;;;;;;13.65;6.50;;;5.40;99.90;;;;;;5088247;28;20024;-75
2023/04/22 05:22:18;;;;;;;12.85;6.07;;;5.50;99.90;;;;;;5120343;28;20025;-75
2023/04/22 05:24:43;;;;;;;12.02;6.32;;;5.60;99.90;;;;;;5120082;28;20052;-75
2023/04/22 05:27:09;;;;;;;14.13;6.70;;;5.70;99.90;;;;;;5087911;28;20091;-75
2023/04/22 05:29:35;;;;;;;10.48;5.68;;;5.80;99.90;;;;;;5087932;28;20028;-75
2023/04/22 05:32:01;;;;;;;15.00;6.03;;;5.90;99.90;;;;;;5086863;28;20021;-76
2023/04/22 05:34:26;;;;;;;13.25;5.55;;;6.00;99.90;;;;;;5087312;28;20028;-75
2023/04/22 05:36:52;;;;;;;15.85;6.60;;;6.10;99.90;;;;;;5086610;28;20035;-75
2023/04/22 05:39:19;;;;;;;13.20;6.70;;;6.30;99.90;;;;;;5087032;28;20549;-75
2023/04/22 05:41:45;;;;;;;15.00;7.07;;;6.50;99.90;;;;;;5086980;28;20040;-75
2023/04/22 05:44:11;;;;;;;14.70;6.75;;;6.70;99.90;;;;;;5086521;28;20028;-75
2023/04/22 05:46:37;;;;;;;10.85;6.70;;;6.80;99.90;;;;;;5087913;28;20032;-75
2023/04/22 05:49:02;;;;;;;10.60;6.47;;;7.00;99.90;;;;;;5086813;28;20016;-75
2023/04/22 05:51:28;;;;;;;9.85;6.93;;;7.20;99.90;;;;;;5087354;28;20447;-75
2023/04/22 05:53:53;;;;;;;18.80;8.20;;;7.40;99.90;;;;;;5086493;28;20133;-75
2023/04/22 05:56:20;;;;;;;14.27;7.82;;;7.60;99.90;;;;;;5086704;28;20036;-75
2023/04/22 05:58:45;;;;;;;17.42;8.30;;;7.90;99.90;;;;;;5119206;28;20040;-75
2023/04/22 06:01:11;;;;;;;14.75;8.68;;;8.20;99.90;;;;;;5072707;28;20053;-76
2023/04/22 06:04:08;;;;;;;19.00;8.80;;;8.80;99.90;;;;;;5065916;28;20044;-77
2023/04/22 06:06:34;;;;;;;14.95;8.63;;;9.40;99.90;;;;;;5057886;28;20032;-77
2023/04/22 06:09:00;;;;;;;14.27;8.23;;;10.20;99.90;;;;;;5062264;28;20095;-76
2023/04/22 06:11:27;;;;;;;16.25;9.38;;;10.70;99.90;;;;;;5060052;28;20025;-75
2023/04/22 06:13:53;;;;;;;15.52;8.43;;;11.30;99.90;;;;;;5057133;28;20040;-75
2023/04/22 06:16:18;;;;;;;16.02;9.00;;;11.80;99.90;;;;;;5070621;28;20397;-76
2023/04/22 06:18:44;;;;;;;18.38;8.13;;;12.20;99.90;;;;;;5054855;28;20025;-75
2023/04/22 06:21:11;;;;;;;13.45;8.30;;;12.60;99.90;;;;;;5071150;28;20025;-75
2023/04/22 06:23:37;;;;;;;15.40;7.90;;;13.00;99.90;;;;;;5053908;28;20079;-76
2023/04/22 06:26:03;;;;;;;15.65;7.75;;;13.40;99.90;;;;;;5054531;28;20029;-76
2023/04/22 06:28:29;;;;;;;11.50;7.88;;;13.70;99.90;;;;;;5054206;28;20067;-75
2023/04/22 06:30:54;;;;;;;14.80;8.73;;;13.80;99.90;;;;;;5036176;28;20037;-76
2023/04/22 06:33:20;;;;;;;13.68;7.18;;;14.10;99.90;;;;;;5054164;28;20028;-76
2023/04/22 06:35:46;;;;;;;15.20;7.78;;;14.40;99.90;;;;;;5054338;28;20025;-76
2023/04/22 06:38:12;;;;;;;17.80;7.28;;;14.40;99.90;;;;;;5040678;28;20455;-76
2023/04/22 06:40:37;;;;;;;14.65;6.75;;;14.60;99.90;;;;;;5058248;28;20080;-76
2023/04/22 06:43:03;;;;;;;15.00;7.28;;;14.90;99.90;;;;;;5073057;28;20029;-75
2023/04/22 06:45:29;;;;;;;13.68;7.50;;;15.20;99.40;;;;;;5039976;28;20029;-75
2023/04/22 06:47:54;;;;;;;12.05;7.57;;;15.30;97.00;;;;;;5057536;28;20476;-75
2023/04/22 06:50:20;;;;;;;12.18;7.53;;;15.30;96.80;;;;;;5057470;28;20072;-75
2023/04/22 06:52:46;;;;;;;18.50;8.00;;;15.50;97.40;;;;;;5039558;28;20033;-75
2023/04/22 06:55:11;;;;;;;18.52;7.57;;;15.80;95.80;;;;;;5057353;28;20070;-69
2023/04/22 06:57:37;;;;;;;11.02;7.60;;;16.00;95.60;;;;;;5057431;28;20112;-71
2023/04/22 07:00:07;;;;;;;17.05;7.78;;;16.10;94.60;;;;;;5061880;28;20395;-75
2023/04/22 07:02:33;;;;;;;15.73;7.00;;;16.30;93.60;;;;;;5059564;28;20379;-76
2023/04/22 07:04:58;;;;;;;12.63;6.10;;;16.70;92.60;;;;;;5059091;28;20111;-74
2023/04/22 07:07:24;;;;;;;12.82;6.32;;;16.80;90.80;;;;;;5077670;28;20097;-75
2023/04/22 07:09:50;;;;;;;11.75;6.30;;;17.00;88.30;;;;;;5077352;28;20017;-75
2023/04/22 07:12:15;;;;;;;17.05;6.85;;;17.20;86.10;;;;;;5092524;28;20070;-73
2023/04/22 07:14:45;;;;;;;14.50;6.00;;;17.40;84.00;;;;;;5092885;28;20031;-74
2023/04/22 07:17:11;;;;;;;15.90;6.03;;;17.70;82.80;;;;;;5077416;28;20043;-74
2023/04/22 07:19:37;;;;;;;11.93;6.05;;;17.90;80.40;;;;;;5077095;28;20103;-78
2023/04/22 07:22:05;;;;;;;10.98;5.95;;;18.00;76.70;;;;;;5058757;28;20040;-74
2023/04/22 07:24:31;;;;;;;11.13;6.05;;;18.20;76.80;;;;;;5059231;28;20479;-74
2023/04/22 07:26:57;;;;;;;13.55;5.95;;;18.40;75.70;;;;;;5093014;28;20028;-74
2023/04/22 07:29:22;;;;;;;13.65;6.22;;;18.30;74.40;;;;;;5076669;28;20487;-74
2023/04/22 07:31:48;;;;;;;12.77;5.68;;;18.40;74.30;;;;;;5092457;28;20387;-74
2023/04/22 07:34:14;;;;;;;13.68;5.63;;;18.40;74.30;;;;;;5077041;28;20032;-71
2023/04/22 07:44:54;;;;;;;12.55;6.22;;;19.20;68.80;;;;;;5278256;23;20509;-69
2023/04/22 07:47:19;;;;;;;15.52;6.25;;;19.20;68.20;;;;;;4999180;28;20121;-67
2023/04/22 07:49:45;;;;;;;10.68;5.82;;;19.40;68.50;;;;;;5016023;28;20034;-64
2023/04/22 07:52:11;;;;;;;9.27;5.32;;;19.60;67.90;;;;;;5016696;28;20034;-64
2023/04/22 07:54:36;;;;;;;16.33;6.55;;;19.70;67.40;;;;;;5016934;28;20054;-65
2023/04/22 07:57:02;;;;;;;9.73;5.22;;;19.50;67.50;;;;;;5016281;28;20061;-64
2023/04/22 07:59:28;;;;;;;12.35;5.28;;;19.70;67.30;;;;;;5016529;28;20449;-64
2023/04/22 08:01:53;;;;;;;12.15;5.10;;;19.90;65.90;;;;;;4999243;28;20428;-64
2023/04/22 08:04:22;;;;;;;11.77;5.35;;;19.70;65.80;;;;;;4999426;28;20479;-59
2023/04/22 08:06:47;;;;;;;12.43;4.82;;;19.90;65.90;;;;;;5016478;28;20033;-64
2023/04/22 08:09:13;;;;;;;12.82;4.95;;;19.90;64.70;;;;;;5016344;28;20030;-63
2023/04/22 08:11:38;;;;;;;13.77;4.85;;;20.30;64.30;;;;;;4998805;28;20117;-63
2023/04/22 08:14:04;;;;;;;17.23;5.57;;;20.50;63.50;;;;;;5016374;28;20366;-63
2023/04/22 08:16:30;;;;;;;9.65;4.70;;;21.00;63.10;;;;;;4998970;28;20093;-64
2023/04/22 08:18:56;;;;;;;10.20;4.43;;;21.10;60.70;;;;;;4998647;28;20457;-64
2023/04/22 08:21:22;;;;;;;8.73;4.90;;;21.40;61.30;;;;;;5016132;28;20100;-68
2023/04/22 08:23:48;;;;;;;11.73;5.22;;;21.60;59.50;;;;;;5016371;28;20126;-69
2023/04/22 08:26:15;;;;;;;12.43;4.93;;;21.70;59.90;;;;;;4998443;28;20032;-70
2023/04/22 08:28:41;;;;;;;10.98;4.90;;;21.70;59.10;;;;;;4998360;28;20022;-64
2023/04/22 08:31:08;;;;;;;7.85;4.55;;;22.10;58.40;;;;;;4998357;28;20037;-64
2023/04/22 08:33:33;;;;;;;10.98;4.38;;;22.20;57.10;;;;;;5015896;28;20026;-64
2023/04/22 08:35:59;;;;;;;10.30;5.82;;;21.70;58.30;;;;;;5015504;28;20033;-64
2023/04/22 08:38:25;;;;;;;10.60;5.00;;;21.70;58.30;;;;;;5015812;28;20034;-65
2023/04/22 08:40:55;;;;;;;10.35;5.03;;;22.00;58.10;;;;;;5015770;28;20025;-65
2023/04/22 08:43:21;;;;;;;10.23;5.18;;;22.40;57.20;;;;;;4998156;28;20033;-64
2023/04/22 08:45:48;;;;;;;9.43;4.90;;;22.60;57.70;;;;;;5015290;28;20134;-63
2023/04/22 08:48:14;;;;;;;10.98;5.20;;;23.00;56.70;;;;;;4998115;28;20446;-64
2023/04/22 08:50:41;;;;;;;13.55;4.97;;;23.30;56.40;;;;;;5015562;28;20029;-63
2023/04/22 08:53:06;;;;;;;12.38;5.22;;;23.20;55.40;;;;;;5015259;28;20026;-64
2023/04/22 08:55:34;;;;;;;6.88;4.43;;;23.00;56.10;;;;;;5015141;28;20476;-68
2023/04/22 08:58:02;;;;;;;9.95;5.10;;;22.30;55.10;;;;;;5015448;28;20021;-68
2023/04/22 09:00:31;;;;;;;10.60;4.97;;;22.20;56.50;;;;;;5014823;28;20144;-68
2023/04/22 09:02:59;;;;;;;10.87;5.13;;;22.10;56.50;;;;;;5015368;28;20071;-69
2023/04/22 09:05:26;;;;;;;15.23;5.10;;;22.00;56.50;;;;;;4997645;28;20358;-68
2023/04/22 09:07:53;;;;;;;11.27;4.78;;;21.70;58.10;;;;;;4997601;28;20404;-69
2023/04/22 09:10:19;;;;;;;13.43;5.70;;;22.30;57.70;;;;;;4997371;28;20560;-69
2023/04/22 09:12:45;;;;;;;7.57;4.70;;;22.70;56.20;;;;;;5015143;28;20381;-68
2023/04/22 09:15:11;;;;;;;7.20;4.95;;;22.70;56.30;;;;;;5015050;28;20049;-68
2023/04/22 09:17:37;;;;;;;13.10;5.15;;;22.40;55.80;;;;;;4997429;28;20029;-69
2023/04/22 09:20:05;;;;;;;9.75;4.60;;;23.00;55.70;;;;;;5014707;28;20049;-68
2023/04/22 09:22:45;;;;;;;13.60;4.85;;;22.80;54.50;;;;;;5014912;28;20045;-68
2023/04/22 09:25:21;;;;;;;11.13;6.20;;;22.50;54.90;;;;;;4997477;28;20056;-68
2023/04/22 09:27:49;;;;;;;14.32;4.72;;;22.10;55.90;;;;;;4997565;28;20061;-68
2023/04/22 09:30:18;;;;;;;10.40;4.27;;;22.10;55.00;;;;;;5014875;28;20105;-68
2023/04/22 09:32:55;;;;;;;8.40;4.22;;;21.90;55.00;;;;;;4997735;28;20484;-68
2023/04/22 09:35:40;;;;;;;12.02;3.85;;;22.30;55.50;;;;;;5014877;28;20034;-68
2023/04/22 09:38:12;;;;;;;9.07;3.88;;;22.40;55.50;;;;;;5014849;28;20103;-68
2023/04/22 09:40:43;;;;;;;9.95;3.78;;;22.40;54.30;;;;;;4997288;28;20128;-68
2023/04/22 09:43:09;;;;;;;10.63;4.45;;;22.60;54.30;;;;;;5014836;28;20377;-68
2023/04/22 09:45:36;;;;;;;10.20;4.28;;;22.30;54.10;;;;;;5014291;28;20050;-68
2023/04/22 09:48:12;;;;;;;10.43;3.95;;;23.10;54.30;;;;;;5015074;28;20061;-68
2023/04/22 09:50:40;;;;;;;9.32;3.65;;;23.00;53.70;;;;;;4997282;28;20116;-68
2023/04/22 09:53:10;;;;;;;9.48;3.50;;;24.00;53.10;;;;;;5014301;28;20045;-68
2023/04/22 09:55:46;;;;;;;7.85;3.22;;;24.20;50.90;;;;;;4996860;28;20049;-68
2023/04/22 09:58:14;;;;;;;7.28;3.13;;;24.20;50.20;;;;;;5014486;28;20092;-68
2023/04/22 10:00:43;;;;;;;12.85;3.13;;;24.40;49.60;;;;;;4996790;28;20436;-68
2023/04/22 10:03:09;;;;;;;7.47;3.33;;;24.50;50.10;;;;;;5014383;28;20034;-68
2023/04/22 10:05:36;;;;;;;10.32;3.50;;;25.00;49.70;;;;;;5014589;28;20029;-68
2023/04/22 10:08:06;;;;;;;5.03;3.05;;;25.00;47.10;;;;;;5014255;28;20030;-68
2023/04/22 10:10:34;;;;;;;6.38;3.33;;;23.70;49.50;;;;;;5013505;28;20117;-68
2023/04/22 10:13:03;;;;;;;3.67;3.30;;;22.30;51.70;;;;;;5014184;28;20097;-68
2023/04/22 10:15:37;;;;;;;11.85;3.60;;;23.30;51.70;;;;;;4996534;28;20121;-68
2023/04/22 10:18:06;;;;;;;6.13;2.97;;;23.80;50.70;;;;;;5013827;28;20025;-69
2023/04/22 10:20:35;;;;;;;5.50;2.95;;;24.50;49.30;;;;;;4996470;28;20548;-69
2023/04/22 10:23:04;;;;;;;9.57;3.53;;;24.00;48.60;;;;;;5013830;28;20030;-69
2023/04/22 10:25:30;;;;;;;7.07;3.10;;;23.30;50.50;;;;;;5014590;28;20026;-68
2023/04/22 10:28:03;;;;;;;5.85;3.13;;;23.40;50.40;;;;;;4996390;28;20113;-68
2023/04/22 10:30:31;;;;;;;6.35;3.38;;;23.10;50.20;;;;;;4996401;28;20037;-68
2023/04/22 10:33:19;;;;;;;9.15;3.70;;;22.40;52.20;;;;;;5013991;28;20072;-68
2023/04/22 10:36:09;;;;;;;10.60;3.88;;;21.60;53.70;;;;;;5014052;28;20030;-68
2023/04/22 10:38:40;;;;;;;7.28;3.20;;;22.10;53.50;;;;;;4996324;28;20062;-69
2023/04/22 10:41:12;;;;;;;8.93;3.85;;;22.80;52.90;;;;;;5014013;28;20030;-68
2023/04/22 10:43:45;;;;;;;9.07;3.80;;;23.00;50.80;;;;;;5014066;28;20018;-68
2023/04/22 10:46:33;;;;;;;6.32;3.22;;;22.90;51.60;;;;;;4996297;28;20050;-68
2023/04/22 10:49:05;;;;;;;8.20;3.08;;;24.20;50.30;;;;;;4996140;28;20052;-68
2023/04/22 10:51:40;;;;;;;7.18;2.83;;;24.30;49.10;;;;;;4996180;28;20504;-68
2023/04/22 10:54:06;;;;;;;6.65;2.83;;;24.20;50.00;;;;;;5013766;28;20048;-68
2023/04/22 10:56:32;;;;;;;7.68;3.60;;;23.00;50.80;;;;;;5013830;28;20042;-68
2023/04/22 10:58:58;;;;;;;5.63;3.10;;;23.20;51.60;;;;;;5013441;28;20040;-68
2023/04/22 11:01:27;;;;;;;6.72;2.95;;;23.00;50.90;;;;;;5013686;28;20030;-68
2023/04/22 11:03:52;;;;;;;;;;;23.40;50.50;;;;;;5013787;28;20420;-68
2023/04/22 11:06:21;;;;;;;5.07;2.80;;;24.00;50.40;;;;;;5013799;28;19909;-69
2023/04/22 11:09:06;;;;;;;11.55;3.33;;;25.10;48.60;;;;;;4996016;28;20033;-69
2023/04/22 11:11:31;;;;;;;5.75;3.40;;;26.00;47.60;;;;;;4995752;28;20045;-68
2023/04/22 11:13:57;;;;;;;6.20;2.90;;;26.60;46.30;;;;;;5013781;28;20038;-69
2023/04/22 11:16:23;;;;;;;7.78;3.17;;;26.90;45.30;;;;;;4996012;28;20033;-69
2023/04/22 11:18:49;;;;;;;7.68;3.00;;;25.60;46.30;;;;;;5013562;28;20060;-68
2023/04/22 11:21:15;;;;;;;6.60;2.85;;;24.20;47.80;;;;;;5013527;28;20040;-69
2023/04/22 11:23:50;;;;;;;8.85;2.95;;;24.60;48.30;;;;;;4999085;28;20026;-68
2023/04/22 11:26:16;;;;;;;8.90;2.75;;;25.80;47.80;;;;;;4999687;28;20026;-68
2023/04/22 11:28:45;;;;;;;6.30;3.10;;;26.10;45.60;;;;;;5016832;28;20439;-69
2023/04/22 11:31:13;;;;;;;7.10;3.10;;;26.60;45.40;;;;;;5017156;28;20101;-68
2023/04/22 11:33:39;;;;;;;7.47;4.05;;;26.60;44.70;;;;;;4999435;28;20030;-68
2023/04/22 11:36:09;;;;;;;4.47;2.83;;;24.90;46.10;;;;;;5016940;28;20084;-68
2023/04/22 11:38:34;;;;;;;8.95;2.47;;;24.20;48.30;;;;;;5016729;28;20036;-68
2023/04/22 11:41:00;;;;;;;4.35;3.00;;;24.80;47.20;;;;;;5017293;28;20400;-68
2023/04/22 11:43:26;;;;;;;6.50;2.85;;;25.90;45.60;;;;;;4999274;28;20041;-68
2023/04/22 11:45:54;;;;;;;4.63;2.50;;;24.90;45.50;;;;;;4998734;28;20060;-68
2023/04/22 11:48:20;;;;;;;9.90;2.40;;;23.70;46.60;;;;;;4998825;28;20037;-68
2023/04/22 11:50:47;;;;;;;6.28;3.13;;;24.10;47.50;;;;;;5017019;28;20030;-68
2023/04/22 11:53:17;;;;;;;7.43;2.90;;;25.60;46.20;;;;;;5016715;28;20160;-68
2023/04/22 11:55:45;;;;;;;3.92;2.25;;;25.30;44.10;;;;;;5016623;28;20022;-68
2023/04/22 11:58:13;;;;;;;9.10;2.60;;;25.00;46.00;;;;;;4999611;28;20049;-68
2023/04/22 12:00:47;;;;;;;8.90;2.70;;;24.90;44.60;;;;;;5016623;28;20059;-68
2023/04/22 12:03:18;;;;;;;6.07;2.30;;;25.00;44.60;;;;;;5016619;28;20030;-68
2023/04/22 12:05:46;;;;;;;5.80;2.38;;;25.30;43.60;;;;;;5016529;28;20029;-68
2023/04/22 12:08:23;;;;;;;6.85;1.98;;;26.20;42.90;;;;;;4998889;28;20384;-68
2023/04/22 12:10:51;;;;;;;7.18;2.42;;;27.70;41.80;;;;;;4999192;28;20125;-68
2023/04/22 12:13:37;;;;;;;6.82;2.20;;;27.90;41.00;;;;;;5015992;28;20367;-68
2023/04/22 12:16:23;;;;;;;6.13;1.75;;;28.10;40.30;;;;;;4984938;28;20030;-68
2023/04/22 12:18:51;;;;;;;6.22;2.15;;;28.40;39.60;;;;;;4997924;28;20137;-68
2023/04/22 12:21:21;;;;;;;6.95;2.00;;;28.70;40.10;;;;;;5018566;28;20072;-68
2023/04/22 12:23:52;;;;;;;4.20;2.38;;;28.10;38.10;;;;;;5017832;28;20041;-68
2023/04/22 12:26:20;;;;;;;5.15;2.10;;;27.20;39.40;;;;;;4998213;28;20048;-73
2023/04/22 12:28:46;;;;;;;8.02;2.25;;;25.80;39.90;;;;;;4996984;28;20076;-64
2023/04/22 12:31:15;;;;;;;4.50;2.63;;;25.00;41.80;;;;;;5016985;28;20433;-64
2023/04/22 12:33:42;;;;;;;5.63;2.00;;;25.60;42.10;;;;;;5008566;28;20030;-63
2023/04/22 12:36:08;;;;;;;6.40;2.00;;;26.60;42.60;;;;;;5014477;28;20057;-63
2023/04/22 12:38:34;;;;;;;4.97;2.22;;;26.60;42.00;;;;;;4997978;28;20080;-63
2023/04/22 12:41:01;;;;;;;6.82;2.00;;;26.70;40.90;;;;;;5015500;28;20025;-64
2023/04/22 12:43:27;;;;;;;6.93;2.20;;;27.40;40.40;;;;;;5015779;28;20026;-63
2023/04/22 12:45:53;;;;;;;4.68;2.22;;;27.70;40.20;;;;;;5016858;28;20045;-63
2023/04/22 12:48:19;;;;;;;8.68;2.40;;;27.20;39.80;;;;;;5015632;28;20034;-63
2023/04/22 12:50:44;;;;;;;4.03;2.17;;;27.70;40.80;;;;;;5015069;28;20042;-64
2023/04/22 12:53:10;;;;;;;5.68;2.28;;;28.30;39.10;;;;;;5015622;28;20025;-63
2023/04/22 12:55:36;;;;;;;6.55;2.78;;;28.70;39.00;;;;;;5013761;28;20414;-64
2023/04/22 12:58:02;;;;;;;5.07;2.22;;;27.50;39.60;;;;;;5015178;28;20107;-64
2023/04/22 13:00:29;;;;;;;3.45;2.15;;;28.00;39.50;;;;;;5014396;28;20034;-65
2023/04/22 13:02:54;;;;;;;4.30;2.38;;;26.90;39.40;;;;;;5021458;28;20038;-64
2023/04/22 13:05:20;;;;;;;4.15;1.98;;;26.70;41.10;;;;;;5015021;28;20033;-63
2023/04/22 13:07:46;;;;;;;5.03;2.10;;;26.50;40.10;;;;;;5015623;28;20038;-64
2023/04/22 13:10:14;;;;;;;2.42;1.98;;;25.80;41.30;;;;;;5015199;28;20375;-64
2023/04/22 13:12:41;;;;;;;7.93;2.33;;;25.10;42.40;;;;;;5013803;28;20036;-63
2023/04/22 13:15:08;;;;;;;4.25;2.10;;;25.80;42.50;;;;;;5013550;28;20038;-64